sensor_id;sensor_type;location;lat;lon;timestamp;P1;durP1;ratioP1;P2;durP2;ratioP2
3427;SDS011;1727;42.624;23.406;2023-02-07T00:00:14;17.85;;;11.32;;
3427;SDS011;1727;42.624;23.406;2023-02-07T00:02:43;28.85;;;14.32;;
3427;SDS011;1727;42.624;23.406;2023-02-07T00:05:10;22.48;;;11.88;;
3427;SDS011;1727;42.624;23.406;2023-02-07T00:07:38;16.55;;;10.43;;
3427;SDS011;1727;42.624;23.406;2023-02-07T00:10:05;15.82;;;9.45;;
3427;SDS011;1727;42.624;23.406;2023-02-07T00:12:33;25.70;;;12.00;;
3427;SDS011;1727;42.624;23.406;2023-02-07T00:15:02;17.95;;;8.20;;
3427;SDS011;1727;42.624;23.406;2023-02-07T00:17:29;12.43;;;7.47;;
3427;SDS011;1727;42.624;23.406;2023-02-07T00:19:56;14.20;;;8.35;;
3427;SDS011;1727;42.624;23.406;2023-02-07T00:22:23;19.80;;;8.60;;
3427;SDS011;1727;42.624;23.406;2023-02-07T00:24:49;12.93;;;7.82;;
3427;SDS011;1727;42.624;23.406;2023-02-07T00:27:16;10.88;;;6.70;;
3427;SDS011;1727;42.624;23.406;2023-02-07T00:29:43;13.77;;;7.43;;
3427;SDS011;1727;42.624;23.406;2023-02-07T00:32:11;12.63;;;8.60;;
3427;SDS011;1727;42.624;23.406;2023-02-07T00:34:39;14.18;;;9.50;;
3427;SDS011;1727;42.624;23.406;2023-02-07T00:37:06;12.68;;;9.32;;
3427;SDS011;1727;42.624;23.406;2023-02-07T00:39:34;15.43;;;8.57;;
3427;SDS011;1727;42.624;23.406;2023-02-07T00:42:02;10.68;;;7.40;;
3427;SDS011;1727;42.624;23.406;2023-02-07T00:44:29;13.82;;;7.43;;
3427;SDS011;1727;42.624;23.406;2023-02-07T00:46:56;15.40;;;8.10;;
3427;SDS011;1727;42.624;23.406;2023-02-07T00:49:25;11.98;;;7.20;;
3427;SDS011;1727;42.624;23.406;2023-02-07T00:51:52;12.35;;;7.30;;
3427;SDS011;1727;42.624;23.406;2023-02-07T00:54:18;12.50;;;9.05;;
3427;SDS011;1727;42.624;23.406;2023-02-07T00:56:45;8.57;;;6.85;;
3427;SDS011;1727;42.624;23.406;2023-02-07T00:59:12;13.10;;;9.52;;
3427;SDS011;1727;42.624;23.406;2023-02-07T01:01:39;14.10;;;8.93;;
3427;SDS011;1727;42.624;23.406;2023-02-07T01:04:05;11.38;;;8.80;;
3427;SDS011;1727;42.624;23.406;2023-02-07T01:06:33;17.88;;;10.15;;
3427;SDS011;1727;42.624;23.406;2023-02-07T01:09:01;30.58;;;17.00;;
3427;SDS011;1727;42.624;23.406;2023-02-07T01:11:29;36.55;;;20.50;;
3427;SDS011;1727;42.624;23.406;2023-02-07T01:13:57;22.17;;;13.55;;
3427;SDS011;1727;42.624;23.406;2023-02-07T01:16:25;26.35;;;13.15;;
3427;SDS011;1727;42.624;23.406;2023-02-07T01:18:53;17.65;;;11.95;;
3427;SDS011;1727;42.624;23.406;2023-02-07T01:21:22;17.88;;;10.32;;
3427;SDS011;1727;42.624;23.406;2023-02-07T01:23:52;15.30;;;7.30;;
3427;SDS011;1727;42.624;23.406;2023-02-07T01:26:20;14.27;;;6.93;;
3427;SDS011;1727;42.624;23.406;2023-02-07T01:28:48;12.88;;;7.65;;
3427;SDS011;1727;42.624;23.406;2023-02-07T01:31:15;16.77;;;10.32;;
3427;SDS011;1727;42.624;23.406;2023-02-07T01:33:42;14.20;;;8.57;;
3427;SDS011;1727;42.624;23.406;2023-02-07T01:36:09;15.10;;;9.23;;
3427;SDS011;1727;42.624;23.406;2023-02-07T01:38:37;23.08;;;10.65;;
3427;SDS011;1727;42.624;23.406;2023-02-07T01:41:05;29.67;;;12.73;;
3427;SDS011;1727;42.624;23.406;2023-02-07T01:43:33;26.75;;;10.60;;
3427;SDS011;1727;42.624;23.406;2023-02-07T01:46:00;27.58;;;10.63;;
3427;SDS011;1727;42.624;23.406;2023-02-07T01:48:28;20.88;;;10.77;;
3427;SDS011;1727;42.624;23.406;2023-02-07T01:50:57;34.78;;;11.10;;
3427;SDS011;1727;42.624;23.406;2023-02-07T01:53:27;22.15;;;9.80;;
3427;SDS011;1727;42.624;23.406;2023-02-07T01:55:58;21.40;;;9.18;;
3427;SDS011;1727;42.624;23.406;2023-02-07T01:58:30;14.90;;;9.18;;
3427;SDS011;1727;42.624;23.406;2023-02-07T02:00:58;14.73;;;9.88;;
3427;SDS011;1727;42.624;23.406;2023-02-07T02:03:26;16.42;;;9.15;;
3427;SDS011;1727;42.624;23.406;2023-02-07T02:05:53;13.48;;;8.00;;
3427;SDS011;1727;42.624;23.406;2023-02-07T02:08:21;12.70;;;9.50;;
3427;SDS011;1727;42.624;23.406;2023-02-07T02:11:07;15.52;;;9.57;;
3427;SDS011;1727;42.624;23.406;2023-02-07T02:13:47;17.25;;;10.18;;
3427;SDS011;1727;42.624;23.406;2023-02-07T02:16:21;12.93;;;8.43;;
3427;SDS011;1727;42.624;23.406;2023-02-07T02:18:59;19.77;;;10.48;;
3427;SDS011;1727;42.624;23.406;2023-02-07T02:24:51;18.15;;;10.65;;
3427;SDS011;1727;42.624;23.406;2023-02-07T02:27:44;22.80;;;11.32;;
3427;SDS011;1727;42.624;23.406;2023-02-07T02:30:36;23.25;;;11.57;;
3427;SDS011;1727;42.624;23.406;2023-02-07T02:33:25;18.38;;;10.32;;
3427;SDS011;1727;42.624;23.406;2023-02-07T02:36:05;14.82;;;9.40;;
3427;SDS011;1727;42.624;23.406;2023-02-07T02:38:41;10.77;;;7.15;;
3427;SDS011;1727;42.624;23.406;2023-02-07T02:41:16;11.38;;;6.72;;
3427;SDS011;1727;42.624;23.406;2023-02-07T02:43:48;13.90;;;8.45;;
3427;SDS011;1727;42.624;23.406;2023-02-07T02:46:20;19.38;;;10.57;;
3427;SDS011;1727;42.624;23.406;2023-02-07T02:48:55;16.20;;;9.57;;
3427;SDS011;1727;42.624;23.406;2023-02-07T02:51:23;18.63;;;11.13;;
3427;SDS011;1727;42.624;23.406;2023-02-07T02:53:54;17.60;;;9.98;;
3427;SDS011;1727;42.624;23.406;2023-02-07T02:56:29;14.82;;;9.10;;
3427;SDS011;1727;42.624;23.406;2023-02-07T02:59:21;12.18;;;7.95;;
3427;SDS011;1727;42.624;23.406;2023-02-07T03:02:01;16.17;;;9.65;;
3427;SDS011;1727;42.624;23.406;2023-02-07T03:04:42;17.40;;;9.60;;
3427;SDS011;1727;42.624;23.406;2023-02-07T03:07:27;9.80;;;7.00;;
3427;SDS011;1727;42.624;23.406;2023-02-07T03:10:09;14.95;;;8.48;;
3427;SDS011;1727;42.624;23.406;2023-02-07T03:12:44;10.38;;;7.70;;
3427;SDS011;1727;42.624;23.406;2023-02-07T03:15:20;11.68;;;7.68;;
3427;SDS011;1727;42.624;23.406;2023-02-07T03:17:58;17.27;;;8.50;;
3427;SDS011;1727;42.624;23.406;2023-02-07T03:20:33;17.92;;;10.40;;
3427;SDS011;1727;42.624;23.406;2023-02-07T03:23:02;17.33;;;10.23;;
3427;SDS011;1727;42.624;23.406;2023-02-07T03:25:31;12.10;;;7.22;;
3427;SDS011;1727;42.624;23.406;2023-02-07T03:27:58;9.68;;;5.90;;
3427;SDS011;1727;42.624;23.406;2023-02-07T03:30:27;13.68;;;8.95;;
3427;SDS011;1727;42.624;23.406;2023-02-07T03:32:59;22.48;;;12.02;;
3427;SDS011;1727;42.624;23.406;2023-02-07T03:35:34;20.60;;;11.52;;
3427;SDS011;1727;42.624;23.406;2023-02-07T03:38:04;9.25;;;7.03;;
3427;SDS011;1727;42.624;23.406;2023-02-07T03:40:35;13.25;;;10.07;;
3427;SDS011;1727;42.624;23.406;2023-02-07T03:43:05;12.60;;;9.35;;
3427;SDS011;1727;42.624;23.406;2023-02-07T03:45:36;14.23;;;8.50;;
3427;SDS011;1727;42.624;23.406;2023-02-07T03:48:02;12.50;;;7.38;;
3427;SDS011;1727;42.624;23.406;2023-02-07T03:50:29;15.60;;;8.73;;
3427;SDS011;1727;42.624;23.406;2023-02-07T03:52:57;14.70;;;9.40;;
3427;SDS011;1727;42.624;23.406;2023-02-07T03:55:24;13.20;;;8.65;;
3427;SDS011;1727;42.624;23.406;2023-02-07T03:57:51;13.88;;;8.30;;
3427;SDS011;1727;42.624;23.406;2023-02-07T04:00:18;11.45;;;8.02;;
3427;SDS011;1727;42.624;23.406;2023-02-07T04:02:45;15.98;;;9.93;;
3427;SDS011;1727;42.624;23.406;2023-02-07T04:05:12;15.27;;;10.05;;
3427;SDS011;1727;42.624;23.406;2023-02-07T04:07:39;12.23;;;7.80;;
3427;SDS011;1727;42.624;23.406;2023-02-07T04:10:08;12.35;;;7.28;;
3427;SDS011;1727;42.624;23.406;2023-02-07T04:12:36;22.58;;;12.93;;
3427;SDS011;1727;42.624;23.406;2023-02-07T04:15:03;9.45;;;8.00;;
3427;SDS011;1727;42.624;23.406;2023-02-07T04:17:31;10.43;;;6.65;;
3427;SDS011;1727;42.624;23.406;2023-02-07T04:19:58;12.75;;;7.97;;
3427;SDS011;1727;42.624;23.406;2023-02-07T04:22:25;16.40;;;9.68;;
3427;SDS011;1727;42.624;23.406;2023-02-07T04:24:52;12.43;;;9.38;;
3427;SDS011;1727;42.624;23.406;2023-02-07T04:27:20;17.10;;;11.25;;
3427;SDS011;1727;42.624;23.406;2023-02-07T04:29:47;22.48;;;12.52;;
3427;SDS011;1727;42.624;23.406;2023-02-07T04:32:14;23.10;;;12.48;;
3427;SDS011;1727;42.624;23.406;2023-02-07T04:34:40;18.13;;;11.82;;
3427;SDS011;1727;42.624;23.406;2023-02-07T04:37:07;16.05;;;9.88;;
3427;SDS011;1727;42.624;23.406;2023-02-07T04:39:34;20.77;;;12.15;;
3427;SDS011;1727;42.624;23.406;2023-02-07T04:42:01;19.45;;;10.93;;
3427;SDS011;1727;42.624;23.406;2023-02-07T04:44:29;24.90;;;12.85;;
3427;SDS011;1727;42.624;23.406;2023-02-07T04:46:56;20.58;;;11.13;;
3427;SDS011;1727;42.624;23.406;2023-02-07T04:49:23;16.95;;;9.20;;
3427;SDS011;1727;42.624;23.406;2023-02-07T04:51:49;21.30;;;11.30;;
3427;SDS011;1727;42.624;23.406;2023-02-07T04:54:16;19.02;;;11.20;;
3427;SDS011;1727;42.624;23.406;2023-02-07T04:56:43;19.48;;;11.93;;
3427;SDS011;1727;42.624;23.406;2023-02-07T04:59:10;22.73;;;10.35;;
3427;SDS011;1727;42.624;23.406;2023-02-07T05:01:38;21.77;;;10.50;;
3427;SDS011;1727;42.624;23.406;2023-02-07T05:04:05;16.88;;;9.02;;
3427;SDS011;1727;42.624;23.406;2023-02-07T05:06:31;16.13;;;9.65;;
3427;SDS011;1727;42.624;23.406;2023-02-07T05:08:58;13.43;;;8.80;;
3427;SDS011;1727;42.624;23.406;2023-02-07T05:11:25;9.65;;;7.00;;
3427;SDS011;1727;42.624;23.406;2023-02-07T05:13:52;10.90;;;7.63;;
3427;SDS011;1727;42.624;23.406;2023-02-07T05:16:19;8.32;;;7.35;;
3427;SDS011;1727;42.624;23.406;2023-02-07T05:18:47;11.25;;;8.48;;
3427;SDS011;1727;42.624;23.406;2023-02-07T05:21:14;15.05;;;8.10;;
3427;SDS011;1727;42.624;23.406;2023-02-07T05:23:40;13.15;;;7.80;;
3427;SDS011;1727;42.624;23.406;2023-02-07T05:26:07;13.68;;;8.10;;
3427;SDS011;1727;42.624;23.406;2023-02-07T05:28:34;18.05;;;9.00;;
3427;SDS011;1727;42.624;23.406;2023-02-07T05:31:01;11.73;;;8.20;;
3427;SDS011;1727;42.624;23.406;2023-02-07T05:33:28;13.27;;;8.73;;
3427;SDS011;1727;42.624;23.406;2023-02-07T05:35:55;11.87;;;8.10;;
3427;SDS011;1727;42.624;23.406;2023-02-07T05:38:22;10.68;;;7.70;;
3427;SDS011;1727;42.624;23.406;2023-02-07T05:40:48;15.43;;;9.15;;
3427;SDS011;1727;42.624;23.406;2023-02-07T05:43:15;15.05;;;9.75;;
3427;SDS011;1727;42.624;23.406;2023-02-07T05:45:42;12.02;;;9.02;;
3427;SDS011;1727;42.624;23.406;2023-02-07T05:48:10;18.77;;;10.80;;
3427;SDS011;1727;42.624;23.406;2023-02-07T05:50:37;136.35;;;41.45;;
3427;SDS011;1727;42.624;23.406;2023-02-07T05:53:05;264.55;;;89.45;;
3427;SDS011;1727;42.624;23.406;2023-02-07T05:55:33;191.73;;;64.28;;
3427;SDS011;1727;42.624;23.406;2023-02-07T05:58:00;120.30;;;43.60;;
3427;SDS011;1727;42.624;23.406;2023-02-07T06:00:27;75.57;;;32.08;;
3427;SDS011;1727;42.624;23.406;2023-02-07T06:02:54;58.25;;;25.13;;
3427;SDS011;1727;42.624;23.406;2023-02-07T06:05:21;54.70;;;25.25;;
3427;SDS011;1727;42.624;23.406;2023-02-07T06:07:49;87.05;;;36.00;;
3427;SDS011;1727;42.624;23.406;2023-02-07T06:10:17;72.32;;;32.78;;
3427;SDS011;1727;42.624;23.406;2023-02-07T06:12:44;64.40;;;27.65;;
3427;SDS011;1727;42.624;23.406;2023-02-07T06:15:11;52.47;;;21.55;;
3427;SDS011;1727;42.624;23.406;2023-02-07T06:17:38;37.10;;;17.02;;
3427;SDS011;1727;42.624;23.406;2023-02-07T06:20:05;28.45;;;13.07;;
3427;SDS011;1727;42.624;23.406;2023-02-07T06:22:32;16.95;;;11.75;;
3427;SDS011;1727;42.624;23.406;2023-02-07T06:24:59;14.77;;;11.10;;
3427;SDS011;1727;42.624;23.406;2023-02-07T06:27:30;18.30;;;9.57;;
3427;SDS011;1727;42.624;23.406;2023-02-07T06:29:57;17.60;;;12.63;;
3427;SDS011;1727;42.624;23.406;2023-02-07T06:32:24;18.85;;;11.75;;
3427;SDS011;1727;42.624;23.406;2023-02-07T06:34:51;17.23;;;12.55;;
3427;SDS011;1727;42.624;23.406;2023-02-07T06:37:18;22.60;;;14.23;;
3427;SDS011;1727;42.624;23.406;2023-02-07T06:39:44;19.27;;;12.82;;
3427;SDS011;1727;42.624;23.406;2023-02-07T06:42:11;18.73;;;13.95;;
3427;SDS011;1727;42.624;23.406;2023-02-07T06:44:39;18.85;;;13.18;;
3427;SDS011;1727;42.624;23.406;2023-02-07T06:47:07;28.20;;;16.27;;
3427;SDS011;1727;42.624;23.406;2023-02-07T06:49:34;31.67;;;17.05;;
3427;SDS011;1727;42.624;23.406;2023-02-07T06:52:00;16.13;;;11.23;;
3427;SDS011;1727;42.624;23.406;2023-02-07T06:54:27;14.57;;;11.02;;
3427;SDS011;1727;42.624;23.406;2023-02-07T06:56:54;21.92;;;12.93;;
3427;SDS011;1727;42.624;23.406;2023-02-07T06:59:21;20.00;;;11.45;;
3427;SDS011;1727;42.624;23.406;2023-02-07T07:01:51;24.45;;;11.95;;
3427;SDS011;1727;42.624;23.406;2023-02-07T07:04:18;27.92;;;15.52;;
3427;SDS011;1727;42.624;23.406;2023-02-07T07:06:45;16.13;;;9.52;;
3427;SDS011;1727;42.624;23.406;2023-02-07T07:09:12;15.27;;;9.10;;
3427;SDS011;1727;42.624;23.406;2023-02-07T07:11:39;17.05;;;10.38;;
3427;SDS011;1727;42.624;23.406;2023-02-07T07:14:07;22.73;;;11.10;;
3427;SDS011;1727;42.624;23.406;2023-02-07T07:16:34;20.00;;;14.20;;
3427;SDS011;1727;42.624;23.406;2023-02-07T07:19:03;21.50;;;12.30;;
3427;SDS011;1727;42.624;23.406;2023-02-07T07:21:29;17.27;;;13.13;;
3427;SDS011;1727;42.624;23.406;2023-02-07T07:23:56;19.88;;;14.02;;
3427;SDS011;1727;42.624;23.406;2023-02-07T07:26:25;22.90;;;13.07;;
3427;SDS011;1727;42.624;23.406;2023-02-07T07:28:52;20.90;;;12.35;;
3427;SDS011;1727;42.624;23.406;2023-02-07T07:31:22;24.85;;;16.05;;
3427;SDS011;1727;42.624;23.406;2023-02-07T07:33:49;20.70;;;12.70;;
3427;SDS011;1727;42.624;23.406;2023-02-07T07:36:17;25.17;;;14.88;;
3427;SDS011;1727;42.624;23.406;2023-02-07T07:38:44;20.83;;;12.48;;
3427;SDS011;1727;42.624;23.406;2023-02-07T07:41:11;26.20;;;16.55;;
3427;SDS011;1727;42.624;23.406;2023-02-07T07:43:38;22.48;;;15.70;;
3427;SDS011;1727;42.624;23.406;2023-02-07T07:46:04;21.88;;;14.75;;
3427;SDS011;1727;42.624;23.406;2023-02-07T07:48:33;16.77;;;11.93;;
3427;SDS011;1727;42.624;23.406;2023-02-07T07:51:00;23.88;;;13.07;;
3427;SDS011;1727;42.624;23.406;2023-02-07T07:53:31;22.83;;;10.85;;
3427;SDS011;1727;42.624;23.406;2023-02-07T07:55:57;16.48;;;12.65;;
3427;SDS011;1727;42.624;23.406;2023-02-07T07:58:25;21.73;;;10.45;;
3427;SDS011;1727;42.624;23.406;2023-02-07T08:00:52;17.10;;;12.70;;
3427;SDS011;1727;42.624;23.406;2023-02-07T08:03:20;19.63;;;12.00;;
3427;SDS011;1727;42.624;23.406;2023-02-07T08:05:47;26.50;;;13.25;;
3427;SDS011;1727;42.624;23.406;2023-02-07T08:08:16;23.60;;;14.32;;
3427;SDS011;1727;42.624;23.406;2023-02-07T08:10:45;25.40;;;13.48;;
3427;SDS011;1727;42.624;23.406;2023-02-07T08:13:12;21.98;;;13.77;;
3427;SDS011;1727;42.624;23.406;2023-02-07T08:15:40;22.05;;;12.18;;
3427;SDS011;1727;42.624;23.406;2023-02-07T08:18:07;21.20;;;12.25;;
3427;SDS011;1727;42.624;23.406;2023-02-07T08:20:34;24.27;;;13.90;;
3427;SDS011;1727;42.624;23.406;2023-02-07T08:23:01;33.67;;;17.35;;
3427;SDS011;1727;42.624;23.406;2023-02-07T08:25:28;30.50;;;15.57;;
3427;SDS011;1727;42.624;23.406;2023-02-07T08:27:57;28.33;;;16.42;;
3427;SDS011;1727;42.624;23.406;2023-02-07T08:30:24;24.90;;;12.77;;
3427;SDS011;1727;42.624;23.406;2023-02-07T08:32:51;27.38;;;15.65;;
3427;SDS011;1727;42.624;23.406;2023-02-07T08:35:19;24.27;;;12.77;;
3427;SDS011;1727;42.624;23.406;2023-02-07T08:37:46;22.90;;;14.25;;
3427;SDS011;1727;42.624;23.406;2023-02-07T08:40:14;18.17;;;10.80;;
3427;SDS011;1727;42.624;23.406;2023-02-07T08:42:41;15.60;;;9.52;;
3427;SDS011;1727;42.624;23.406;2023-02-07T08:45:09;17.58;;;9.80;;
3427;SDS011;1727;42.624;23.406;2023-02-07T08:47:37;14.05;;;8.13;;
3427;SDS011;1727;42.624;23.406;2023-02-07T08:50:04;11.57;;;8.70;;
3427;SDS011;1727;42.624;23.406;2023-02-07T08:52:31;20.02;;;11.00;;
3427;SDS011;1727;42.624;23.406;2023-02-07T08:54:58;14.32;;;8.68;;
3427;SDS011;1727;42.624;23.406;2023-02-07T08:57:25;15.65;;;9.30;;
3427;SDS011;1727;42.624;23.406;2023-02-07T08:59:52;15.90;;;10.23;;
3427;SDS011;1727;42.624;23.406;2023-02-07T09:02:20;12.98;;;9.10;;
3427;SDS011;1727;42.624;23.406;2023-02-07T09:04:47;19.40;;;13.27;;
3427;SDS011;1727;42.624;23.406;2023-02-07T09:07:14;14.93;;;9.18;;
3427;SDS011;1727;42.624;23.406;2023-02-07T09:09:41;65.35;;;25.13;;
3427;SDS011;1727;42.624;23.406;2023-02-07T09:12:08;42.67;;;20.55;;
3427;SDS011;1727;42.624;23.406;2023-02-07T09:14:36;46.08;;;21.77;;
3427;SDS011;1727;42.624;23.406;2023-02-07T09:17:04;45.92;;;20.83;;
3427;SDS011;1727;42.624;23.406;2023-02-07T09:19:35;63.67;;;31.23;;
3427;SDS011;1727;42.624;23.406;2023-02-07T09:22:02;24.95;;;12.65;;
3427;SDS011;1727;42.624;23.406;2023-02-07T09:24:30;17.20;;;10.35;;
3427;SDS011;1727;42.624;23.406;2023-02-07T09:26:56;17.08;;;10.13;;
3427;SDS011;1727;42.624;23.406;2023-02-07T09:29:23;20.23;;;9.68;;
3427;SDS011;1727;42.624;23.406;2023-02-07T09:31:50;17.83;;;8.55;;
3427;SDS011;1727;42.624;23.406;2023-02-07T09:34:17;20.48;;;10.63;;
3427;SDS011;1727;42.624;23.406;2023-02-07T09:36:46;18.58;;;11.52;;
3427;SDS011;1727;42.624;23.406;2023-02-07T09:39:14;24.13;;;11.95;;
3427;SDS011;1727;42.624;23.406;2023-02-07T09:41:42;16.00;;;10.43;;
3427;SDS011;1727;42.624;23.406;2023-02-07T09:44:18;20.55;;;11.95;;
3427;SDS011;1727;42.624;23.406;2023-02-07T09:46:52;23.20;;;10.57;;
3427;SDS011;1727;42.624;23.406;2023-02-07T09:49:28;19.35;;;11.85;;
3427;SDS011;1727;42.624;23.406;2023-02-07T09:52:02;16.77;;;12.40;;
3427;SDS011;1727;42.624;23.406;2023-02-07T09:54:32;23.30;;;11.77;;
3427;SDS011;1727;42.624;23.406;2023-02-07T09:57:04;18.63;;;12.23;;
3427;SDS011;1727;42.624;23.406;2023-02-07T09:59:42;20.70;;;12.10;;
3427;SDS011;1727;42.624;23.406;2023-02-07T10:02:21;24.48;;;13.70;;
3427;SDS011;1727;42.624;23.406;2023-02-07T10:04:53;19.15;;;11.38;;
3427;SDS011;1727;42.624;23.406;2023-02-07T10:07:25;12.75;;;9.32;;
3427;SDS011;1727;42.624;23.406;2023-02-07T10:09:52;12.77;;;9.45;;
3427;SDS011;1727;42.624;23.406;2023-02-07T10:12:23;13.68;;;9.45;;
3427;SDS011;1727;42.624;23.406;2023-02-07T10:15:09;20.00;;;10.70;;
3427;SDS011;1727;42.624;23.406;2023-02-07T10:17:50;28.77;;;15.10;;
3427;SDS011;1727;42.624;23.406;2023-02-07T10:20:32;25.33;;;15.68;;
3427;SDS011;1727;42.624;23.406;2023-02-07T10:23:18;21.23;;;13.30;;
3427;SDS011;1727;42.624;23.406;2023-02-07T10:25:57;24.90;;;15.50;;
3427;SDS011;1727;42.624;23.406;2023-02-07T10:28:43;16.15;;;10.10;;
3427;SDS011;1727;42.624;23.406;2023-02-07T10:31:27;15.48;;;9.93;;
3427;SDS011;1727;42.624;23.406;2023-02-07T10:33:56;19.15;;;11.15;;
3427;SDS011;1727;42.624;23.406;2023-02-07T10:36:28;16.90;;;10.25;;
3427;SDS011;1727;42.624;23.406;2023-02-07T10:39:00;15.88;;;9.32;;
3427;SDS011;1727;42.624;23.406;2023-02-07T10:41:32;22.38;;;10.23;;
3427;SDS011;1727;42.624;23.406;2023-02-07T10:44:02;20.02;;;10.50;;
3427;SDS011;1727;42.624;23.406;2023-02-07T10:46:30;14.45;;;9.85;;
3427;SDS011;1727;42.624;23.406;2023-02-07T10:48:58;33.80;;;16.67;;
3427;SDS011;1727;42.624;23.406;2023-02-07T10:51:26;49.40;;;26.85;;
3427;SDS011;1727;42.624;23.406;2023-02-07T10:54:03;43.60;;;24.25;;
3427;SDS011;1727;42.624;23.406;2023-02-07T10:56:34;19.05;;;12.27;;
3427;SDS011;1727;42.624;23.406;2023-02-07T10:59:22;18.52;;;12.02;;
3427;SDS011;1727;42.624;23.406;2023-02-07T11:02:02;25.17;;;15.15;;
3427;SDS011;1727;42.624;23.406;2023-02-07T11:04:49;17.55;;;12.95;;
3427;SDS011;1727;42.624;23.406;2023-02-07T11:07:16;24.77;;;14.00;;
3427;SDS011;1727;42.624;23.406;2023-02-07T11:09:44;24.08;;;13.35;;
3427;SDS011;1727;42.624;23.406;2023-02-07T11:12:14;19.08;;;11.90;;
3427;SDS011;1727;42.624;23.406;2023-02-07T11:14:57;21.45;;;13.95;;
3427;SDS011;1727;42.624;23.406;2023-02-07T11:17:26;22.48;;;12.45;;
3427;SDS011;1727;42.624;23.406;2023-02-07T11:19:54;23.30;;;13.70;;
3427;SDS011;1727;42.624;23.406;2023-02-07T11:22:22;18.95;;;10.30;;
3427;SDS011;1727;42.624;23.406;2023-02-07T11:24:52;17.77;;;12.07;;
3427;SDS011;1727;42.624;23.406;2023-02-07T11:27:32;21.00;;;12.18;;
3427;SDS011;1727;42.624;23.406;2023-02-07T11:30:03;21.95;;;12.60;;
3427;SDS011;1727;42.624;23.406;2023-02-07T11:32:32;23.92;;;12.55;;
3427;SDS011;1727;42.624;23.406;2023-02-07T11:35:03;16.00;;;11.13;;
3427;SDS011;1727;42.624;23.406;2023-02-07T11:37:33;21.93;;;11.93;;
3427;SDS011;1727;42.624;23.406;2023-02-07T11:40:18;20.07;;;11.67;;
3427;SDS011;1727;42.624;23.406;2023-02-07T11:42:48;14.37;;;8.93;;
3427;SDS011;1727;42.624;23.406;2023-02-07T11:45:21;11.13;;;7.57;;
3427;SDS011;1727;42.624;23.406;2023-02-07T11:47:49;12.45;;;8.80;;
3427;SDS011;1727;42.624;23.406;2023-02-07T11:50:20;18.05;;;10.15;;
3427;SDS011;1727;42.624;23.406;2023-02-07T11:52:52;15.27;;;10.27;;
3427;SDS011;1727;42.624;23.406;2023-02-07T11:55:23;14.77;;;10.10;;
3427;SDS011;1727;42.624;23.406;2023-02-07T11:57:53;10.18;;;8.35;;
3427;SDS011;1727;42.624;23.406;2023-02-07T12:00:22;17.35;;;9.40;;
3427;SDS011;1727;42.624;23.406;2023-02-07T12:02:57;19.52;;;10.27;;
3427;SDS011;1727;42.624;23.406;2023-02-07T12:05:26;16.73;;;10.60;;
3427;SDS011;1727;42.624;23.406;2023-02-07T12:07:57;20.58;;;11.55;;
3427;SDS011;1727;42.624;23.406;2023-02-07T12:10:30;16.95;;;11.00;;
3427;SDS011;1727;42.624;23.406;2023-02-07T12:13:01;20.25;;;11.18;;
3427;SDS011;1727;42.624;23.406;2023-02-07T12:15:32;21.03;;;12.23;;
3427;SDS011;1727;42.624;23.406;2023-02-07T12:18:03;31.13;;;15.60;;
3427;SDS011;1727;42.624;23.406;2023-02-07T12:20:34;29.27;;;12.25;;
3427;SDS011;1727;42.624;23.406;2023-02-07T12:23:05;19.13;;;12.00;;
3427;SDS011;1727;42.624;23.406;2023-02-07T12:25:45;13.85;;;10.52;;
3427;SDS011;1727;42.624;23.406;2023-02-07T12:28:17;13.63;;;10.00;;
3427;SDS011;1727;42.624;23.406;2023-02-07T12:30:51;13.88;;;9.05;;
3427;SDS011;1727;42.624;23.406;2023-02-07T12:33:25;11.05;;;8.38;;
3427;SDS011;1727;42.624;23.406;2023-02-07T12:35:59;11.23;;;7.10;;
3427;SDS011;1727;42.624;23.406;2023-02-07T12:38:37;15.85;;;13.10;;
3427;SDS011;1727;42.624;23.406;2023-02-07T12:41:14;20.85;;;13.75;;
3427;SDS011;1727;42.624;23.406;2023-02-07T12:43:47;16.27;;;10.02;;
3427;SDS011;1727;42.624;23.406;2023-02-07T12:46:21;20.33;;;9.55;;
3427;SDS011;1727;42.624;23.406;2023-02-07T12:49:11;25.00;;;12.90;;
3427;SDS011;1727;42.624;23.406;2023-02-07T12:51:50;22.92;;;14.30;;
3427;SDS011;1727;42.624;23.406;2023-02-07T12:54:27;14.00;;;8.95;;
3427;SDS011;1727;42.624;23.406;2023-02-07T12:57:06;18.33;;;10.00;;
3427;SDS011;1727;42.624;23.406;2023-02-07T12:59:41;19.02;;;10.68;;
3427;SDS011;1727;42.624;23.406;2023-02-07T13:02:23;23.02;;;11.07;;
3427;SDS011;1727;42.624;23.406;2023-02-07T13:08:00;19.83;;;10.40;;
3427;SDS011;1727;42.624;23.406;2023-02-07T13:10:39;23.65;;;13.77;;
3427;SDS011;1727;42.624;23.406;2023-02-07T13:13:14;15.80;;;11.57;;
3427;SDS011;1727;42.624;23.406;2023-02-07T13:15:49;18.33;;;11.32;;
3427;SDS011;1727;42.624;23.406;2023-02-07T13:18:23;26.23;;;15.70;;
3427;SDS011;1727;42.624;23.406;2023-02-07T13:21:00;17.88;;;12.15;;
3427;SDS011;1727;42.624;23.406;2023-02-07T13:23:39;20.45;;;11.02;;
3427;SDS011;1727;42.624;23.406;2023-02-07T13:26:09;23.88;;;13.73;;
3427;SDS011;1727;42.624;23.406;2023-02-07T13:28:42;23.00;;;11.77;;
3427;SDS011;1727;42.624;23.406;2023-02-07T13:31:13;15.68;;;10.07;;
3427;SDS011;1727;42.624;23.406;2023-02-07T13:33:42;29.30;;;13.88;;
3427;SDS011;1727;42.624;23.406;2023-02-07T13:36:14;25.27;;;12.90;;
3427;SDS011;1727;42.624;23.406;2023-02-07T13:41:39;24.65;;;13.57;;
3427;SDS011;1727;42.624;23.406;2023-02-07T13:44:18;29.15;;;16.50;;
3427;SDS011;1727;42.624;23.406;2023-02-07T13:46:53;39.30;;;18.58;;
3427;SDS011;1727;42.624;23.406;2023-02-07T13:49:40;20.65;;;12.23;;
3427;SDS011;1727;42.624;23.406;2023-02-07T13:52:16;19.52;;;10.77;;
3427;SDS011;1727;42.624;23.406;2023-02-07T13:54:51;24.20;;;12.20;;
3427;SDS011;1727;42.624;23.406;2023-02-07T13:57:37;17.17;;;12.48;;
3427;SDS011;1727;42.624;23.406;2023-02-07T14:00:24;24.17;;;13.05;;
3427;SDS011;1727;42.624;23.406;2023-02-07T14:02:54;18.95;;;11.75;;
3427;SDS011;1727;42.624;23.406;2023-02-07T14:05:24;20.88;;;12.85;;
3427;SDS011;1727;42.624;23.406;2023-02-07T14:07:56;18.67;;;12.13;;
3427;SDS011;1727;42.624;23.406;2023-02-07T14:10:37;26.88;;;12.80;;
3427;SDS011;1727;42.624;23.406;2023-02-07T14:13:19;20.75;;;11.30;;
3427;SDS011;1727;42.624;23.406;2023-02-07T14:15:56;18.45;;;11.10;;
3427;SDS011;1727;42.624;23.406;2023-02-07T14:18:33;19.42;;;12.02;;
3427;SDS011;1727;42.624;23.406;2023-02-07T14:24:16;17.35;;;10.85;;
3427;SDS011;1727;42.624;23.406;2023-02-07T14:26:55;18.75;;;10.05;;
3427;SDS011;1727;42.624;23.406;2023-02-07T14:32:31;16.35;;;9.80;;
3427;SDS011;1727;42.624;23.406;2023-02-07T14:35:13;24.33;;;13.90;;
3427;SDS011;1727;42.624;23.406;2023-02-07T14:37:59;16.27;;;9.60;;
3427;SDS011;1727;42.624;23.406;2023-02-07T14:40:28;19.48;;;13.20;;
3427;SDS011;1727;42.624;23.406;2023-02-07T14:43:00;22.60;;;14.38;;
3427;SDS011;1727;42.624;23.406;2023-02-07T14:45:30;23.85;;;14.65;;
3427;SDS011;1727;42.624;23.406;2023-02-07T14:48:00;17.70;;;11.60;;
3427;SDS011;1727;42.624;23.406;2023-02-07T14:50:29;15.55;;;11.30;;
3427;SDS011;1727;42.624;23.406;2023-02-07T14:52:58;18.45;;;11.82;;
3427;SDS011;1727;42.624;23.406;2023-02-07T14:55:29;25.52;;;16.05;;
3427;SDS011;1727;42.624;23.406;2023-02-07T14:58:00;18.25;;;12.40;;
3427;SDS011;1727;42.624;23.406;2023-02-07T15:00:31;27.92;;;15.52;;
3427;SDS011;1727;42.624;23.406;2023-02-07T15:03:08;18.80;;;12.40;;
3427;SDS011;1727;42.624;23.406;2023-02-07T15:05:38;31.05;;;16.92;;
3427;SDS011;1727;42.624;23.406;2023-02-07T15:08:15;29.83;;;16.42;;
3427;SDS011;1727;42.624;23.406;2023-02-07T15:10:44;17.73;;;12.95;;
3427;SDS011;1727;42.624;23.406;2023-02-07T15:13:21;25.00;;;15.23;;